Terminal Aerodrome Forecast
Issued by NWS

Home | Current Version | Previous Version | Text Only | Print | Product List | Glossary On
Versions: 1 2 3 4 5 6 7 8 9 10 11 12 13 14
000
FTUS44 KLIX 251120
TAFHUM
TAF
KHUM 251120Z 2512/2612 00000KT P6SM SCT018 BKN040
      TEMPO 2512/2513 1/2SM -RA FG BKN002
     FM251500 VRB03KT P6SM BKN025 BKN250
      TEMPO 2515/2519 4SM TSRA OVC015CB
     FM251900 VRB03KT P6SM SHRA VCTS BKN035CB BKN110
     FM260500 00000KT P6SM BKN030 OVC120=

USA.gov is the U.S. government's official web portal to all federal, state and local government web resources and services.